Terminal Aerodrome Forecast
Issued by NWS Mt. Holly, NJ

Current Version | Previous Version | Text Only | Print | Product List | Glossary On
Versions: 1 2 3 4 5 6 7 8 9 10 11 12 13 14 15 16 17 18 19 20 21 22
000
FTUS41 KPHI 292327
TAFPHL
TAF
KPHL 292327Z 3000/3106 20008KT P6SM VCSH BKN040
      TEMPO 3000/3003 3SM -SHRA BR SCT025 OVC035
     FM300300 20005KT 4SM -SHRA BR BKN025 OVC050
      TEMPO 3006/3010 2SM +SHRA OVC015
     FM301000 23005KT 2SM SHRA BR OVC008
     FM301400 23005KT 2SM -SHRA BR OVC010
     FM301800 20005KT 6SM BR VCSH OVC015
     FM310200 25005KT 6SM BR BKN030=

USA.gov is the U.S. government's official web portal to all federal, state and local government web resources and services.